Time;durP1;ratioP1;P1;durP2;ratioP2;P2;SDS_P1;SDS_P2;PMS_P1;PMS_P2;Temp;Humidity;BMP_temperature;BMP_pressure;BME280_temperature;BME280_humidity;BME280_pressure;Samples;Min_cycle;Max_cycle;Signal;HPM_P1;HPM_P2
2021/03/20 00:01:22;;;;;;;3.08;1.35;;;-5.30;99.90;;;;;;5072691;28;20530;-52
2021/03/20 00:03:48;;;;;;;8.75;2.13;;;-5.20;99.90;;;;;;5073569;28;20029;-52
2021/03/20 00:06:15;;;;;;;4.32;1.73;;;-5.10;99.90;;;;;;5072236;28;20025;-54
2021/03/20 00:08:43;;;;;;;8.02;1.40;;;-5.00;99.90;;;;;;5073257;28;20464;-50
2021/03/20 00:11:10;;;;;;;2.58;1.48;;;-4.90;99.90;;;;;;5073341;28;20487;-51
2021/03/20 00:13:36;;;;;;;5.03;1.30;;;-4.80;99.90;;;;;;5073422;28;20025;-53
2021/03/20 00:16:02;;;;;;;4.05;1.20;;;-4.70;99.90;;;;;;5073624;28;20021;-51
2021/03/20 00:18:28;;;;;;;5.53;1.15;;;-4.60;99.90;;;;;;5073380;28;20240;-55
2021/03/20 00:20:54;;;;;;;3.30;1.23;;;-4.60;99.90;;;;;;5072108;28;20051;-54
2021/03/20 00:23:21;;;;;;;2.25;1.10;;;-4.50;99.90;;;;;;5072303;28;20377;-50
2021/03/20 00:25:46;;;;;;;6.55;1.45;;;-4.50;99.90;;;;;;5073025;28;20070;-54
2021/03/20 00:28:20;;;;;;;5.38;1.38;;;-4.40;99.90;;;;;;5073186;28;20028;-55
2021/03/20 00:30:48;;;;;;;4.90;1.30;;;-4.40;99.90;;;;;;5072837;28;20103;-51
2021/03/20 00:33:14;;;;;;;6.00;1.50;;;-4.40;99.90;;;;;;5077663;28;20475;-52
2021/03/20 00:35:40;;;;;;;4.43;1.08;;;-4.50;99.90;;;;;;5076175;28;20025;-52
2021/03/20 00:38:05;;;;;;;4.28;1.40;;;-4.50;99.90;;;;;;5086694;28;20028;-52
2021/03/20 00:40:32;;;;;;;4.07;1.48;;;-4.50;99.90;;;;;;5073080;28;20036;-54
2021/03/20 00:42:57;;;;;;;5.30;1.85;;;-4.50;99.90;;;;;;5091786;28;20035;-53
2021/03/20 00:45:26;;;;;;;3.95;1.50;;;-4.50;99.90;;;;;;5092451;28;20375;-53
2021/03/20 00:47:53;;;;;;;3.70;1.20;;;-4.40;99.90;;;;;;5072665;28;20515;-53
2021/03/20 00:50:24;;;;;;;5.75;1.40;;;-4.40;99.90;;;;;;5071963;28;20021;-51
2021/03/20 00:52:49;;;;;;;4.05;1.40;;;-4.40;99.90;;;;;;5070594;28;20025;-52
2021/03/20 00:55:15;;;;;;;4.35;1.40;;;-4.40;99.90;;;;;;5072043;28;20066;-51
2021/03/20 00:57:41;;;;;;;2.92;1.55;;;-4.30;99.90;;;;;;5071377;28;20045;-51
2021/03/20 01:00:14;;;;;;;2.50;1.25;;;-4.20;99.90;;;;;;5071854;28;20028;-49
2021/03/20 01:02:40;;;;;;;3.33;1.35;;;-4.10;99.90;;;;;;5071427;28;20024;-51
2021/03/20 01:05:07;;;;;;;2.20;1.40;;;-4.00;99.90;;;;;;5071859;28;20028;-54
2021/03/20 01:07:32;;;;;;;2.25;1.50;;;-4.00;99.90;;;;;;5070233;28;20078;-54
2021/03/20 01:09:58;;;;;;;1.63;1.00;;;-3.80;99.90;;;;;;5071445;28;20025;-53
2021/03/20 01:12:24;;;;;;;5.20;1.50;;;-3.70;99.90;;;;;;5071650;28;20430;-53
2021/03/20 01:14:49;;;;;;;3.53;1.13;;;-3.70;99.90;;;;;;5071526;28;20070;-55
2021/03/20 01:17:15;;;;;;;3.00;1.20;;;-3.60;99.90;;;;;;5071307;28;20050;-51
2021/03/20 01:19:40;;;;;;;1.70;0.90;;;-3.50;99.90;;;;;;5071299;28;20051;-53
2021/03/20 01:22:06;;;;;;;5.40;1.10;;;-3.40;99.90;;;;;;5068649;28;20480;-53
2021/03/20 01:24:32;;;;;;;7.68;1.65;;;-3.40;99.90;;;;;;5071587;28;20036;-52
2021/03/20 01:26:57;;;;;;;4.63;1.00;;;-3.20;99.90;;;;;;5070889;28;20036;-53
2021/03/20 01:29:23;;;;;;;3.28;1.30;;;-3.20;99.90;;;;;;5071427;28;20052;-54
2021/03/20 01:31:51;;;;;;;2.88;1.40;;;-3.10;99.90;;;;;;5071132;28;20027;-51
2021/03/20 01:34:16;;;;;;;4.07;1.20;;;-3.10;99.90;;;;;;5071143;28;20032;-56
2021/03/20 01:36:42;;;;;;;4.25;1.02;;;-3.10;99.90;;;;;;5069706;28;20032;-52
2021/03/20 01:39:07;;;;;;;3.10;1.13;;;-3.00;99.90;;;;;;5071188;28;20029;-52
2021/03/20 01:41:33;;;;;;;3.08;1.42;;;-3.00;99.90;;;;;;5071015;28;20033;-53
2021/03/20 01:43:58;;;;;;;1.73;1.00;;;-2.90;99.90;;;;;;5070819;28;20103;-54
2021/03/20 01:46:41;;;;;;;5.13;1.25;;;-2.90;99.90;;;;;;5069521;28;20032;-52
2021/03/20 01:49:35;;;;;;;6.30;1.13;;;-2.90;99.90;;;;;;5070961;28;20040;-56
2021/03/20 01:52:36;;;;;;;5.15;1.30;;;-2.80;99.90;;;;;;5069286;28;20031;-53
2021/03/20 01:55:07;;;;;;;1.77;1.10;;;-2.80;99.90;;;;;;5020421;28;20075;-52
2021/03/20 01:57:37;;;;;;;5.25;1.00;;;-2.80;99.90;;;;;;5070827;28;20067;-52
2021/03/20 02:00:12;;;;;;;4.95;1.45;;;-2.70;99.90;;;;;;5069570;28;20069;-52
2021/03/20 02:02:37;;;;;;;3.13;1.40;;;-2.70;99.90;;;;;;5070533;28;20032;-52
2021/03/20 02:05:05;;;;;;;3.05;1.42;;;-2.60;99.90;;;;;;5070538;28;20036;-54
2021/03/20 02:07:30;;;;;;;1.92;1.10;;;-2.60;99.90;;;;;;5069552;28;20025;-52
2021/03/20 02:09:56;;;;;;;3.13;0.90;;;-2.60;99.90;;;;;;5070688;28;20065;-50
2021/03/20 02:12:30;;;;;;;2.75;1.00;;;-2.60;99.90;;;;;;5070721;28;20031;-53
2021/03/20 02:15:12;;;;;;;2.78;1.10;;;-2.50;99.90;;;;;;5070572;28;20028;-50
2021/03/20 02:18:14;;;;;;;1.75;1.00;;;-2.50;99.90;;;;;;5069941;28;20178;-47
2021/03/20 02:21:10;;;;;;;2.28;1.10;;;-2.50;99.90;;;;;;5067214;28;20551;-52
2021/03/20 02:24:07;;;;;;;1.90;1.05;;;-2.50;99.90;;;;;;5070552;28;20030;-51
2021/03/20 02:26:51;;;;;;;2.97;1.08;;;-2.40;99.90;;;;;;5070455;28;20040;-54
2021/03/20 02:29:33;;;;;;;3.83;1.20;;;-2.50;99.90;;;;;;5070354;28;20028;-52
2021/03/20 02:32:35;;;;;;;8.32;1.35;;;-2.50;99.90;;;;;;5070133;28;20086;-51
2021/03/20 02:35:34;;;;;;;3.28;1.13;;;-2.40;99.90;;;;;;5068919;28;20380;-54
2021/03/20 02:37:59;;;;;;;1.25;0.60;;;-2.50;99.90;;;;;;5068990;28;20476;-52
2021/03/20 02:41:08;;;;;;;3.60;0.93;;;-2.50;99.90;;;;;;5071145;28;20020;-54
2021/03/20 02:43:53;;;;;;;4.95;0.90;;;-2.40;99.90;;;;;;5055504;28;20025;-50
2021/03/20 02:46:28;;;;;;;2.78;0.95;;;-2.40;99.90;;;;;;5070359;28;20460;-54
2021/03/20 02:49:34;;;;;;;1.98;0.90;;;-2.50;99.90;;;;;;5070047;28;20116;-53
2021/03/20 02:52:09;;;;;;;3.97;0.80;;;-2.40;99.90;;;;;;5067804;28;20502;-52
2021/03/20 02:54:58;;;;;;;2.95;0.80;;;-2.40;99.90;;;;;;5070366;28;20064;-53
2021/03/20 02:57:43;;;;;;;3.53;0.63;;;-2.40;99.90;;;;;;5069844;28;20525;-56
2021/03/20 03:00:38;;;;;;;2.90;1.30;;;-2.40;99.90;;;;;;5070220;28;20032;-49
2021/03/20 03:03:07;;;;;;;1.33;0.95;;;-2.40;99.90;;;;;;5070881;28;20507;-51
2021/03/20 03:05:41;;;;;;;2.50;1.10;;;-2.40;99.90;;;;;;5090255;28;20029;-52
2021/03/20 03:08:24;;;;;;;2.88;1.20;;;-2.30;99.90;;;;;;5089280;28;20082;-51
2021/03/20 03:10:56;;;;;;;2.08;0.90;;;-2.40;99.90;;;;;;5090309;28;20567;-52
2021/03/20 03:13:29;;;;;;;3.97;1.58;;;-2.30;99.90;;;;;;5090005;28;20027;-55
2021/03/20 03:16:04;;;;;;;1.80;0.93;;;-2.30;99.90;;;;;;5074418;28;20403;-55
2021/03/20 03:18:36;;;;;;;6.75;1.50;;;-2.30;99.90;;;;;;5070578;28;20481;-51
2021/03/20 03:21:06;;;;;;;1.98;1.00;;;-2.30;99.90;;;;;;5070629;28;20165;-50
2021/03/20 03:23:35;;;;;;;2.00;1.25;;;-2.30;99.90;;;;;;5071773;28;20484;-55
2021/03/20 03:26:16;;;;;;;4.50;1.00;;;-2.30;99.90;;;;;;5071656;28;20043;-53
2021/03/20 03:28:55;;;;;;;3.70;1.30;;;-2.20;99.90;;;;;;5071538;28;20033;-55
2021/03/20 03:31:36;;;;;;;1.58;1.00;;;-2.20;99.90;;;;;;5075169;28;20025;-53
2021/03/20 03:34:12;;;;;;;1.92;0.80;;;-2.20;99.90;;;;;;5075352;28;20024;-54
2021/03/20 03:36:43;;;;;;;;;;;-2.20;99.90;;;;;;5073315;28;20021;-54
2021/03/20 03:39:17;;;;;;;3.75;1.05;;;-2.20;99.90;;;;;;5074992;28;19919;-50
2021/03/20 03:41:42;;;;;;;2.33;0.70;;;-2.20;99.90;;;;;;5075580;28;20044;-54
2021/03/20 03:44:09;;;;;;;2.13;1.08;;;-2.20;99.90;;;;;;5095296;28;20024;-56
2021/03/20 03:46:38;;;;;;;4.07;1.15;;;-2.10;99.90;;;;;;5095389;28;20475;-54
2021/03/20 03:49:07;;;;;;;2.78;1.30;;;-2.20;99.90;;;;;;5095238;28;20069;-55
2021/03/20 03:51:34;;;;;;;3.55;1.10;;;-2.20;99.90;;;;;;5081835;28;20539;-50
2021/03/20 03:54:00;;;;;;;2.40;1.10;;;-2.20;99.90;;;;;;5074851;28;20055;-51
2021/03/20 03:56:47;;;;;;;1.42;1.00;;;-2.20;99.90;;;;;;5073605;28;20048;-55
2021/03/20 03:59:44;;;;;;;4.32;1.20;;;-2.30;99.90;;;;;;5074937;28;20394;-55
2021/03/20 04:02:54;;;;;;;1.33;1.20;;;-2.20;99.90;;;;;;5074586;28;20415;-53
2021/03/20 04:05:38;;;;;;;3.83;1.20;;;-2.20;99.90;;;;;;5066540;28;20071;-51
2021/03/20 04:08:40;;;;;;;5.10;0.85;;;-2.20;99.90;;;;;;5072040;28;20434;-53
2021/03/20 04:11:20;;;;;;;3.83;1.02;;;-2.20;99.90;;;;;;5074744;28;20017;-51
2021/03/20 04:14:04;;;;;;;5.60;0.90;;;-2.30;99.90;;;;;;5074516;28;20519;-53
2021/03/20 04:16:38;;;;;;;2.25;1.08;;;-2.30;99.90;;;;;;5074523;28;20054;-54
2021/03/20 04:19:17;;;;;;;2.92;0.98;;;-2.20;99.90;;;;;;5074442;28;20025;-56
2021/03/20 04:21:54;;;;;;;4.72;1.05;;;-2.30;99.90;;;;;;5073146;28;20066;-48
2021/03/20 04:24:24;;;;;;;5.07;1.05;;;-2.30;99.90;;;;;;5074406;28;20024;-50
2021/03/20 04:27:09;;;;;;;7.07;1.55;;;-2.30;99.90;;;;;;5074370;28;20025;-54
2021/03/20 04:29:55;;;;;;;3.90;1.45;;;-2.20;99.90;;;;;;5074347;28;20426;-53
2021/03/20 04:32:28;;;;;;;2.28;0.90;;;-2.20;99.90;;;;;;5074307;28;20025;-52
2021/03/20 04:35:06;;;;;;;2.47;1.10;;;-2.20;99.90;;;;;;5074106;28;20024;-53
2021/03/20 04:37:35;;;;;;;4.57;1.13;;;-2.10;99.90;;;;;;5072813;28;20025;-52
2021/03/20 04:40:05;;;;;;;3.95;1.20;;;-2.10;99.90;;;;;;5073915;28;20028;-52
2021/03/20 04:42:33;;;;;;;1.90;0.95;;;-2.10;99.90;;;;;;5080525;28;20036;-52
2021/03/20 04:45:29;;;;;;;2.95;0.85;;;-2.10;99.90;;;;;;5094195;28;20043;-53
2021/03/20 04:48:03;;;;;;;2.13;0.80;;;-2.00;99.90;;;;;;5093706;28;20030;-54
2021/03/20 04:50:29;;;;;;;1.20;0.82;;;-2.00;99.90;;;;;;5090144;28;20369;-50
2021/03/20 04:52:58;;;;;;;4.43;1.08;;;-2.00;99.90;;;;;;5072535;28;20031;-54
2021/03/20 04:55:24;;;;;;;1.73;0.95;;;-2.00;99.90;;;;;;5073816;28;20131;-50
2021/03/20 04:58:04;;;;;;;3.83;1.23;;;-2.00;99.90;;;;;;5073806;28;20052;-53
2021/03/20 05:00:44;;;;;;;1.52;0.93;;;-1.90;99.90;;;;;;5073665;28;20112;-52
2021/03/20 05:03:35;;;;;;;2.00;1.00;;;-1.90;99.90;;;;;;5073369;28;20451;-55
2021/03/20 05:06:14;;;;;;;2.17;0.93;;;-1.90;99.90;;;;;;5072285;28;20024;-55
2021/03/20 05:08:53;;;;;;;3.40;0.98;;;-1.80;99.90;;;;;;5073314;28;20025;-53
2021/03/20 05:11:30;;;;;;;4.20;1.13;;;-1.80;99.90;;;;;;5073488;28;20047;-49
2021/03/20 05:14:00;;;;;;;3.58;1.10;;;-1.80;99.90;;;;;;5073409;28;20032;-53
2021/03/20 05:16:41;;;;;;;3.25;1.40;;;-1.70;99.90;;;;;;5073559;28;20103;-49
2021/03/20 05:19:07;;;;;;;3.10;1.15;;;-1.70;99.90;;;;;;5072954;28;20024;-55
2021/03/20 05:21:41;;;;;;;1.73;1.00;;;-1.70;99.90;;;;;;5072015;28;20107;-48
2021/03/20 05:24:12;;;;;;;1.20;0.70;;;-1.70;99.90;;;;;;5073175;28;20095;-51
2021/03/20 05:26:37;;;;;;;2.10;0.57;;;-1.60;99.90;;;;;;5073255;28;20129;-50
2021/03/20 05:29:03;;;;;;;3.30;0.88;;;-1.60;99.90;;;;;;5073080;28;20548;-52
2021/03/20 05:31:29;;;;;;;5.35;1.48;;;-1.50;99.90;;;;;;5073192;28;20032;-56
2021/03/20 05:33:56;;;;;;;2.65;1.10;;;-1.50;99.90;;;;;;5072738;28;20471;-55
2021/03/20 05:36:22;;;;;;;5.88;1.20;;;-1.40;99.90;;;;;;5071871;28;20036;-54
2021/03/20 05:38:48;;;;;;;4.38;1.45;;;-1.30;99.90;;;;;;5072898;28;20361;-53
2021/03/20 05:41:35;;;;;;;2.72;1.20;;;-1.20;99.90;;;;;;5072966;28;20047;-51
2021/03/20 05:44:22;;;;;;;3.00;1.27;;;-1.10;99.90;;;;;;5092632;28;20063;-53
2021/03/20 05:46:57;;;;;;;2.50;0.88;;;-1.00;99.90;;;;;;5093106;28;20027;-52
2021/03/20 05:49:31;;;;;;;1.58;0.80;;;-0.90;99.90;;;;;;5092872;28;20542;-52
2021/03/20 05:52:17;;;;;;;4.38;1.10;;;-0.80;99.90;;;;;;5076427;28;20035;-55
2021/03/20 05:55:06;;;;;;;1.88;0.90;;;-0.70;99.90;;;;;;5071895;28;20030;-49
2021/03/20 05:57:58;;;;;;;0.73;0.73;;;-0.60;99.90;;;;;;5072752;28;20055;-54
2021/03/20 06:00:43;;;;;;;1.88;1.00;;;-0.40;99.90;;;;;;5072625;28;20060;-53
2021/03/20 06:03:12;;;;;;;3.67;0.98;;;-0.30;99.90;;;;;;5072350;28;20290;-50
2021/03/20 06:05:50;;;;;;;3.05;1.20;;;-0.10;99.90;;;;;;5072211;28;20468;-53
2021/03/20 06:08:41;;;;;;;3.35;0.90;;;0.10;99.90;;;;;;5072484;28;20472;-54
2021/03/20 06:11:22;;;;;;;3.92;1.15;;;0.40;99.90;;;;;;5072540;28;20107;-52
2021/03/20 06:14:05;;;;;;;4.18;1.30;;;0.60;99.60;;;;;;5072552;28;20074;-53
2021/03/20 06:16:35;;;;;;;3.05;1.10;;;0.80;98.80;;;;;;5072568;28;20363;-55
2021/03/20 06:19:29;;;;;;;1.73;1.00;;;1.00;97.80;;;;;;5072336;28;20419;-56
2021/03/20 06:22:08;;;;;;;1.40;0.90;;;1.10;97.70;;;;;;5071069;28;20096;-55
2021/03/20 06:25:02;;;;;;;5.50;1.20;;;1.10;96.90;;;;;;5072431;28;20089;-51
2021/03/20 06:27:34;;;;;;;2.75;1.00;;;1.30;96.50;;;;;;5072435;28;20905;-51
2021/03/20 06:30:27;;;;;;;4.43;1.25;;;1.40;96.30;;;;;;5072327;28;20349;-55
2021/03/20 06:32:58;;;;;;;3.15;1.00;;;1.50;95.70;;;;;;5072392;28;20044;-54
2021/03/20 06:35:47;;;;;;;3.20;1.13;;;1.50;95.70;;;;;;5072106;28;20017;-50
2021/03/20 06:38:25;;;;;;;5.47;1.20;;;1.30;95.40;;;;;;5072239;28;20028;-55
2021/03/20 06:40:59;;;;;;;2.83;1.00;;;1.30;95.20;;;;;;5072278;28;20061;-50
2021/03/20 06:43:31;;;;;;;4.18;0.98;;;1.40;95.40;;;;;;5086831;28;20111;-54
2021/03/20 06:45:57;;;;;;;3.50;1.02;;;1.50;95.40;;;;;;5092411;28;20047;-56
2021/03/20 06:48:29;;;;;;;4.40;1.30;;;1.70;95.10;;;;;;5092362;28;20407;-53
2021/03/20 06:50:57;;;;;;;4.55;1.40;;;1.90;94.30;;;;;;5084145;28;20528;-50
2021/03/20 06:53:41;;;;;;;2.35;1.52;;;2.10;93.20;;;;;;5072063;28;20039;-53
2021/03/20 06:56:09;;;;;;;2.53;1.00;;;2.40;93.30;;;;;;5071847;28;20127;-52
2021/03/20 06:58:37;;;;;;;3.38;1.23;;;2.60;92.00;;;;;;5072180;28;20025;-53
2021/03/20 07:01:19;;;;;;;2.80;1.02;;;2.70;92.20;;;;;;5072169;28;20391;-54
2021/03/20 07:04:07;;;;;;;1.73;1.15;;;3.00;91.50;;;;;;5072065;28;20039;-53
2021/03/20 07:07:03;;;;;;;1.58;0.90;;;3.10;90.40;;;;;;5074527;28;20476;-50
2021/03/20 07:09:30;;;;;;;2.90;0.87;;;3.30;90.40;;;;;;5075673;28;20040;-53
2021/03/20 07:12:17;;;;;;;4.43;1.25;;;3.50;90.00;;;;;;5075694;28;20713;-55
2021/03/20 07:14:53;;;;;;;1.05;0.95;;;3.70;89.20;;;;;;5074429;28;20116;-56
2021/03/20 07:17:24;;;;;;;3.55;1.08;;;3.80;90.00;;;;;;5075669;28;20044;-51
2021/03/20 07:19:58;;;;;;;3.42;1.25;;;3.80;84.10;;;;;;5072839;28;20028;-50
2021/03/20 07:22:32;;;;;;;2.45;0.93;;;3.80;86.60;;;;;;5073807;28;20064;-52
2021/03/20 07:25:00;;;;;;;1.95;1.13;;;3.70;86.20;;;;;;5075665;28;20424;-55
2021/03/20 07:27:34;;;;;;;4.18;0.85;;;3.60;88.00;;;;;;5075333;28;20036;-54
2021/03/20 07:30:06;;;;;;;2.80;1.10;;;3.60;85.80;;;;;;5075374;28;20025;-51
2021/03/20 07:32:41;;;;;;;1.60;1.10;;;3.70;87.10;;;;;;5075216;28;20024;-54
2021/03/20 07:35:19;;;;;;;1.58;0.90;;;3.70;86.10;;;;;;5074872;28;20028;-53
2021/03/20 07:37:45;;;;;;;3.10;1.30;;;3.80;86.70;;;;;;5074232;28;20027;-53
2021/03/20 07:40:32;;;;;;;3.50;1.00;;;3.90;86.80;;;;;;5075221;28;20032;-55
2021/03/20 07:43:18;;;;;;;3.05;1.58;;;3.90;83.50;;;;;;5080742;28;20074;-52
2021/03/20 07:45:47;;;;;;;2.72;1.10;;;3.90;83.20;;;;;;5095268;28;20074;-52
2021/03/20 07:48:18;;;;;;;1.58;1.00;;;4.10;83.60;;;;;;5095437;28;20029;-52
2021/03/20 07:51:07;;;;;;;1.95;1.00;;;4.30;84.00;;;;;;5089136;28;20046;-51
2021/03/20 07:53:48;;;;;;;3.97;1.30;;;4.50;82.90;;;;;;5073972;28;20064;-53
2021/03/20 07:56:13;;;;;;;2.00;1.08;;;4.80;82.20;;;;;;5074649;28;20052;-55
2021/03/20 07:58:44;;;;;;;2.22;0.93;;;5.10;80.70;;;;;;5074865;28;20070;-53
2021/03/20 08:01:18;;;;;;;1.67;0.80;;;5.30;79.90;;;;;;5074787;28;20020;-51
2021/03/20 08:03:53;;;;;;;1.20;0.68;;;5.50;79.60;;;;;;5074784;28;20116;-50
2021/03/20 08:06:22;;;;;;;4.05;1.00;;;6.00;79.80;;;;;;5073451;28;20056;-56
2021/03/20 08:09:16;;;;;;;5.55;1.00;;;6.80;77.70;;;;;;5074674;28;20048;-53
2021/03/20 08:11:42;;;;;;;2.13;0.90;;;8.20;70.10;;;;;;5074587;28;20025;-54
2021/03/20 08:14:15;;;;;;;1.70;0.90;;;9.30;69.60;;;;;;5074575;28;20356;-53
2021/03/20 08:16:42;;;;;;;2.15;0.73;;;10.40;65.60;;;;;;5073319;28;20017;-55
2021/03/20 08:19:16;;;;;;;1.98;0.88;;;11.30;66.60;;;;;;5074427;28;20030;-53
2021/03/20 08:22:02;;;;;;;1.35;0.88;;;11.90;65.00;;;;;;5073383;28;20074;-57
2021/03/20 08:24:42;;;;;;;1.60;0.77;;;12.50;64.60;;;;;;5074296;28;20029;-53
2021/03/20 08:27:22;;;;;;;1.67;0.77;;;13.30;64.70;;;;;;5074184;28;20438;-55
2021/03/20 08:29:52;;;;;;;1.58;0.80;;;13.00;64.40;;;;;;5074256;28;20070;-55
2021/03/20 08:32:31;;;;;;;2.75;0.93;;;12.40;65.30;;;;;;5073978;28;20086;-54
2021/03/20 08:35:25;;;;;;;1.92;1.02;;;12.00;62.40;;;;;;5074294;28;20028;-55
2021/03/20 08:38:07;;;;;;;2.08;0.70;;;11.80;61.70;;;;;;5073126;28;20123;-52
2021/03/20 08:41:00;;;;;;;3.80;0.88;;;11.70;62.10;;;;;;5073996;28;20832;-52
2021/03/20 08:43:47;;;;;;;4.78;0.90;;;11.60;58.30;;;;;;5088581;28;20016;-60
2021/03/20 08:46:23;;;;;;;3.35;1.02;;;11.30;62.80;;;;;;5094132;28;20072;-59
2021/03/20 08:49:30;;;;;;;1.58;0.70;;;11.10;61.30;;;;;;5094150;28;20028;-60
2021/03/20 08:52:08;;;;;;;2.17;1.10;;;10.90;55.00;;;;;;5077674;28;20029;-57
2021/03/20 08:54:54;;;;;;;2.40;1.15;;;11.10;61.20;;;;;;5073693;28;20036;-59
2021/03/20 08:57:30;;;;;;;;;;;11.40;58.20;;;;;;5074012;28;20056;-59
2021/03/20 08:59:58;;;;;;;2.47;0.98;;;11.30;54.20;;;;;;5073832;28;19995;-59
2021/03/20 09:02:24;;;;;;;2.40;1.27;;;11.30;61.20;;;;;;5073165;28;20073;-59
2021/03/20 09:05:08;;;;;;;1.67;0.70;;;11.30;60.20;;;;;;5073708;28;20033;-59
2021/03/20 09:07:48;;;;;;;2.33;1.00;;;11.50;59.60;;;;;;5072249;28;20028;-59
2021/03/20 09:10:31;;;;;;;2.08;0.93;;;11.60;56.40;;;;;;5073667;28;20095;-60
2021/03/20 09:13:17;;;;;;;2.97;1.02;;;11.50;58.20;;;;;;5073285;28;20042;-60
2021/03/20 09:15:50;;;;;;;1.73;0.85;;;11.40;55.90;;;;;;5073346;28;20464;-56
2021/03/20 09:18:17;;;;;;;1.65;0.65;;;11.20;57.20;;;;;;5073453;28;20044;-59
2021/03/20 09:20:54;;;;;;;25.35;2.30;;;11.20;58.30;;;;;;5072298;28;20033;-59
2021/03/20 09:23:36;;;;;;;2.05;1.25;;;11.00;54.80;;;;;;5072718;28;20052;-59
2021/03/20 09:26:06;;;;;;;4.10;1.00;;;10.50;51.90;;;;;;5073145;28;20030;-58
2021/03/20 09:29:14;;;;;;;2.10;1.00;;;10.10;55.20;;;;;;5072653;28;20036;-59
2021/03/20 09:31:54;;;;;;;1.40;0.80;;;9.90;51.10;;;;;;5070430;28;20029;-57
2021/03/20 09:34:33;;;;;;;4.00;0.70;;;9.70;56.00;;;;;;5073055;28;20107;-60
2021/03/20 09:37:26;;;;;;;5.45;1.00;;;9.60;56.50;;;;;;5072206;28;20028;-57
2021/03/20 09:39:56;;;;;;;1.65;0.75;;;9.50;56.30;;;;;;5049320;28;20511;-60
2021/03/20 09:42:24;;;;;;;2.25;0.70;;;9.40;56.50;;;;;;5078639;28;20024;-57
2021/03/20 09:45:12;;;;;;;4.03;1.02;;;9.20;56.00;;;;;;5093184;28;20522;-58
2021/03/20 09:47:40;;;;;;;2.97;1.13;;;9.30;54.30;;;;;;5092845;28;20028;-57
2021/03/20 09:50:27;;;;;;;2.10;1.00;;;9.20;54.50;;;;;;5093051;28;20608;-59
2021/03/20 09:53:08;;;;;;;1.88;0.93;;;9.30;54.70;;;;;;5051659;28;20036;-56
2021/03/20 09:55:43;;;;;;;4.53;0.95;;;9.50;53.30;;;;;;5052323;28;20021;-60
2021/03/20 09:58:18;;;;;;;1.93;0.90;;;9.50;55.00;;;;;;5052666;28;20096;-60
2021/03/20 10:00:53;;;;;;;2.72;1.65;;;9.60;52.60;;;;;;5052382;28;20469;-59
2021/03/20 10:03:42;;;;;;;3.10;1.27;;;9.70;54.40;;;;;;5052589;28;20361;-59
2021/03/20 10:06:35;;;;;;;1.45;1.00;;;9.70;51.80;;;;;;5051599;28;20048;-56
2021/03/20 10:09:06;;;;;;;3.13;0.90;;;9.50;51.80;;;;;;5052300;28;20017;-59
2021/03/20 10:11:36;;;;;;;1.98;1.00;;;9.30;54.70;;;;;;5052285;28;20021;-58
2021/03/20 10:14:34;;;;;;;4.15;1.50;;;9.30;54.00;;;;;;5052507;28;20062;-58
2021/03/20 10:17:08;;;;;;;1.95;0.98;;;9.30;51.50;;;;;;5052483;28;20424;-58
2021/03/20 10:19:41;;;;;;;2.53;1.27;;;9.40;54.20;;;;;;5052106;28;20021;-58
2021/03/20 10:22:18;;;;;;;4.22;1.00;;;9.60;52.60;;;;;;5051424;28;20048;-60
2021/03/20 10:24:49;;;;;;;2.03;1.15;;;9.80;54.50;;;;;;5052156;28;20473;-60
2021/03/20 10:27:25;;;;;;;2.25;1.25;;;10.00;53.80;;;;;;5052189;28;20437;-60
2021/03/20 10:29:51;;;;;;;4.20;1.00;;;10.00;52.90;;;;;;5052239;28;20036;-59
2021/03/20 10:32:23;;;;;;;1.35;1.05;;;9.80;53.00;;;;;;5052128;28;20021;-59
2021/03/20 10:34:53;;;;;;;1.75;0.90;;;9.60;53.20;;;;;;5052268;28;20029;-60
2021/03/20 10:37:20;;;;;;;1.55;0.93;;;9.30;53.50;;;;;;5051458;28;20029;-57
2021/03/20 10:39:48;;;;;;;1.88;0.90;;;9.30;53.10;;;;;;5053284;28;20392;-59
2021/03/20 10:42:46;;;;;;;1.63;1.05;;;9.30;52.80;;;;;;5065994;28;20020;-59
2021/03/20 10:45:37;;;;;;;2.30;1.20;;;9.50;51.80;;;;;;5084193;28;20055;-59
2021/03/20 10:48:18;;;;;;;3.80;1.27;;;9.60;53.40;;;;;;5096423;28;20064;-60
2021/03/20 10:50:46;;;;;;;1.58;0.90;;;9.50;52.70;;;;;;5090316;28;20032;-59
2021/03/20 10:53:38;;;;;;;2.38;0.82;;;9.50;53.10;;;;;;5076096;28;20111;-59
2021/03/20 10:56:04;;;;;;;1.83;0.80;;;9.40;50.60;;;;;;5075908;28;20491;-59
2021/03/20 10:58:35;;;;;;;2.38;1.08;;;9.40;53.40;;;;;;5076022;28;20074;-59
2021/03/20 11:01:03;;;;;;;1.88;0.98;;;9.40;52.80;;;;;;5076022;28;20332;-60
2021/03/20 11:03:33;;;;;;;2.00;0.93;;;9.30;53.20;;;;;;5075744;28;20036;-59
2021/03/20 11:06:10;;;;;;;1.80;1.10;;;9.20;52.50;;;;;;5075073;28;20024;-60
2021/03/20 11:08:36;;;;;;;2.35;0.95;;;9.20;51.90;;;;;;5075673;28;20066;-58
2021/03/20 11:11:27;;;;;;;3.53;0.98;;;9.10;52.80;;;;;;5075863;28;20016;-60
2021/03/20 11:14:01;;;;;;;1.30;0.90;;;8.90;51.60;;;;;;5073602;28;20074;-60
2021/03/20 11:16:27;;;;;;;1.60;1.10;;;8.90;52.50;;;;;;5087446;28;20494;-59
2021/03/20 11:19:17;;;;;;;2.40;1.10;;;8.90;53.20;;;;;;5073565;28;20047;-60
2021/03/20 11:21:46;;;;;;;1.42;0.98;;;8.80;52.50;;;;;;5085306;28;20052;-59
2021/03/20 11:24:33;;;;;;;3.35;1.30;;;8.70;52.80;;;;;;5093949;28;20103;-59
2021/03/20 11:27:15;;;;;;;2.38;1.30;;;8.80;50.50;;;;;;5092622;28;20028;-59
2021/03/20 11:29:43;;;;;;;1.38;1.10;;;8.80;50.40;;;;;;5082105;28;20023;-59
2021/03/20 11:32:21;;;;;;;3.03;1.00;;;9.00;51.80;;;;;;5073693;28;20551;-59
2021/03/20 11:34:52;;;;;;;1.23;0.80;;;9.20;50.50;;;;;;5073364;28;20499;-60
2021/03/20 11:37:25;;;;;;;3.10;1.00;;;9.30;51.10;;;;;;5072804;28;20052;-60
2021/03/20 11:39:57;;;;;;;1.95;0.95;;;9.40;50.50;;;;;;5073344;28;20032;-59
2021/03/20 11:42:38;;;;;;;2.15;0.90;;;9.30;49.10;;;;;;5073337;28;20074;-60
2021/03/20 11:45:21;;;;;;;3.88;0.98;;;9.20;49.50;;;;;;5091595;28;20024;-60
2021/03/20 11:47:52;;;;;;;1.23;1.00;;;8.90;48.30;;;;;;5074196;28;20024;-60
2021/03/20 11:50:29;;;;;;;1.05;0.77;;;8.80;49.50;;;;;;5073476;28;20305;-60
2021/03/20 11:53:03;;;;;;;2.08;1.00;;;8.70;49.80;;;;;;5072251;28;20184;-58
2021/03/20 11:55:36;;;;;;;1.45;0.95;;;8.60;49.60;;;;;;5073304;28;20048;-60
2021/03/20 11:58:23;;;;;;;2.45;1.23;;;8.50;49.50;;;;;;5073023;28;20135;-60
2021/03/20 12:00:49;;;;;;;3.20;1.45;;;8.10;49.60;;;;;;5072976;28;20100;-57
2021/03/20 12:03:21;;;;;;;3.85;1.17;;;7.80;49.50;;;;;;5073023;28;20055;-58
2021/03/20 12:05:48;;;;;;;2.60;1.45;;;7.50;49.60;;;;;;5072023;28;20051;-59
2021/03/20 12:08:37;;;;;;;3.33;1.55;;;7.30;50.90;;;;;;5072760;28;20452;-56
2021/03/20 12:11:06;;;;;;;3.15;1.30;;;7.20;50.60;;;;;;5072770;28;20155;-60
2021/03/20 12:13:50;;;;;;;1.98;1.10;;;7.10;50.90;;;;;;5084793;28;20078;-60
2021/03/20 12:16:27;;;;;;;2.45;1.20;;;7.10;50.00;;;;;;5073189;28;20028;-60
2021/03/20 12:19:04;;;;;;;2.03;1.15;;;7.00;50.20;;;;;;5072664;28;20829;-59
2021/03/20 12:21:30;;;;;;;2.88;1.27;;;7.10;49.60;;;;;;5074357;28;20150;-59
2021/03/20 12:23:58;;;;;;;2.55;1.35;;;7.10;50.20;;;;;;5092586;28;20107;-59
2021/03/20 12:26:35;;;;;;;2.75;0.90;;;7.20;50.70;;;;;;5092891;28;20066;-60
2021/03/20 12:29:30;;;;;;;2.35;1.02;;;7.10;50.30;;;;;;5092269;28;20035;-58
2021/03/20 12:32:15;;;;;;;1.55;0.95;;;7.00;50.00;;;;;;5092436;28;20111;-58
2021/03/20 12:34:41;;;;;;;2.15;0.88;;;7.00;51.10;;;;;;5092756;28;20115;-60
2021/03/20 12:37:20;;;;;;;2.03;0.85;;;7.10;51.20;;;;;;5091536;28;20115;-57
2021/03/20 12:39:50;;;;;;;2.40;1.08;;;7.20;50.80;;;;;;5092462;28;20045;-59
2021/03/20 12:42:17;;;;;;;3.85;1.17;;;7.30;51.00;;;;;;5092082;28;20024;-59
2021/03/20 12:44:49;;;;;;;1.73;1.00;;;7.40;49.70;;;;;;5092339;28;20032;-60
2021/03/20 12:47:18;;;;;;;1.92;1.10;;;7.30;49.20;;;;;;5092185;28;20061;-60
2021/03/20 12:49:44;;;;;;;2.45;1.10;;;7.30;49.90;;;;;;5092314;28;20024;-60
2021/03/20 12:52:20;;;;;;;1.00;0.80;;;7.30;50.10;;;;;;5074481;28;20380;-59
2021/03/20 12:54:51;;;;;;;2.08;0.90;;;7.30;47.90;;;;;;5071972;28;20495;-60
2021/03/20 12:57:27;;;;;;;1.45;0.93;;;7.30;49.20;;;;;;5071743;28;20132;-58
2021/03/20 12:59:52;;;;;;;1.35;0.90;;;7.50;49.00;;;;;;5071856;28;20036;-60
2021/03/20 13:02:18;;;;;;;1.88;1.00;;;7.60;49.30;;;;;;5071223;28;20502;-59
2021/03/20 13:04:49;;;;;;;1.65;0.90;;;7.70;49.50;;;;;;5071929;28;20432;-59
2021/03/20 13:07:16;;;;;;;1.67;1.00;;;7.90;49.20;;;;;;5070771;28;20428;-60
2021/03/20 13:09:42;;;;;;;1.63;1.02;;;8.10;49.60;;;;;;5071789;28;20104;-59
2021/03/20 13:12:11;;;;;;;2.13;0.88;;;8.20;49.40;;;;;;5071719;28;20115;-60
2021/03/20 13:14:37;;;;;;;3.47;1.20;;;8.30;48.50;;;;;;5077207;28;20112;-58
2021/03/20 13:17:04;;;;;;;2.05;1.10;;;8.30;49.10;;;;;;5091761;28;20102;-60
2021/03/20 13:19:30;;;;;;;5.55;1.58;;;8.30;48.80;;;;;;5091568;28;20055;-58
2021/03/20 13:21:56;;;;;;;2.25;1.10;;;8.20;48.80;;;;;;5071402;28;20025;-57
2021/03/20 13:24:22;;;;;;;2.42;1.13;;;8.10;48.70;;;;;;5071468;28;20032;-57
2021/03/20 13:26:47;;;;;;;1.27;0.95;;;8.10;48.50;;;;;;5071451;28;20021;-57
2021/03/20 13:29:13;;;;;;;3.10;1.10;;;8.10;49.50;;;;;;5071255;28;20376;-57
2021/03/20 13:31:39;;;;;;;2.78;1.20;;;8.10;49.10;;;;;;5071302;28;20017;-57
2021/03/20 13:34:05;;;;;;;1.20;0.93;;;8.10;49.20;;;;;;5071192;28;20107;-57
2021/03/20 13:36:30;;;;;;;1.20;1.10;;;8.00;49.20;;;;;;5070470;28;20531;-56